sensor_id;sensor_type;location;lat;lon;timestamp;P1;durP1;ratioP1;P2;durP2;ratioP2
80146;SDS011;69472;55.812;37.638;2023-05-17T00:00:41;13.73;;;5.93;;
80146;SDS011;69472;55.812;37.638;2023-05-17T00:05:42;17.90;;;6.30;;
80146;SDS011;69472;55.812;37.638;2023-05-17T00:10:43;11.88;;;6.10;;
80146;SDS011;69472;55.812;37.638;2023-05-17T00:15:44;16.77;;;5.97;;
80146;SDS011;69472;55.812;37.638;2023-05-17T00:20:44;11.60;;;5.25;;
80146;SDS011;69472;55.812;37.638;2023-05-17T00:25:45;12.50;;;4.97;;
80146;SDS011;69472;55.812;37.638;2023-05-17T00:30:46;12.88;;;5.28;;
80146;SDS011;69472;55.812;37.638;2023-05-17T00:35:47;10.95;;;4.65;;
80146;SDS011;69472;55.812;37.638;2023-05-17T00:40:48;8.32;;;4.50;;
80146;SDS011;69472;55.812;37.638;2023-05-17T00:45:50;7.32;;;4.50;;
80146;SDS011;69472;55.812;37.638;2023-05-17T00:50:51;10.43;;;4.63;;
80146;SDS011;69472;55.812;37.638;2023-05-17T00:55:53;8.65;;;5.05;;
80146;SDS011;69472;55.812;37.638;2023-05-17T01:00:54;10.80;;;5.30;;
80146;SDS011;69472;55.812;37.638;2023-05-17T01:05:55;10.63;;;4.80;;
80146;SDS011;69472;55.812;37.638;2023-05-17T01:11:01;8.02;;;4.72;;
80146;SDS011;69472;55.812;37.638;2023-05-17T01:21:49;9.23;;;4.70;;
80146;SDS011;69472;55.812;37.638;2023-05-17T01:27:08;8.98;;;4.28;;
80146;SDS011;69472;55.812;37.638;2023-05-17T01:32:11;7.38;;;4.60;;
80146;SDS011;69472;55.812;37.638;2023-05-17T01:37:13;10.55;;;5.00;;
80146;SDS011;69472;55.812;37.638;2023-05-17T01:42:20;10.75;;;4.18;;
80146;SDS011;69472;55.812;37.638;2023-05-17T01:47:28;9.48;;;4.90;;
80146;SDS011;69472;55.812;37.638;2023-05-17T01:58:21;9.23;;;4.95;;
80146;SDS011;69472;55.812;37.638;2023-05-17T02:03:26;11.40;;;4.47;;
80146;SDS011;69472;55.812;37.638;2023-05-17T02:08:27;10.27;;;5.63;;
80146;SDS011;69472;55.812;37.638;2023-05-17T02:13:27;8.05;;;5.15;;
80146;SDS011;69472;55.812;37.638;2023-05-17T02:18:28;8.35;;;5.25;;
80146;SDS011;69472;55.812;37.638;2023-05-17T02:23:31;7.25;;;4.90;;
80146;SDS011;69472;55.812;37.638;2023-05-17T02:28:32;11.02;;;5.50;;
80146;SDS011;69472;55.812;37.638;2023-05-17T02:33:33;9.50;;;5.68;;
80146;SDS011;69472;55.812;37.638;2023-05-17T02:38:33;12.15;;;5.40;;
80146;SDS011;69472;55.812;37.638;2023-05-17T02:43:34;10.48;;;5.97;;
80146;SDS011;69472;55.812;37.638;2023-05-17T02:48:35;14.05;;;5.93;;
80146;SDS011;69472;55.812;37.638;2023-05-17T02:53:36;13.85;;;6.07;;
80146;SDS011;69472;55.812;37.638;2023-05-17T02:58:37;13.05;;;5.93;;
80146;SDS011;69472;55.812;37.638;2023-05-17T03:03:37;14.05;;;6.20;;
80146;SDS011;69472;55.812;37.638;2023-05-17T03:08:38;10.45;;;6.50;;
80146;SDS011;69472;55.812;37.638;2023-05-17T03:13:39;12.48;;;5.75;;
80146;SDS011;69472;55.812;37.638;2023-05-17T03:18:40;12.68;;;5.95;;
80146;SDS011;69472;55.812;37.638;2023-05-17T03:23:41;11.70;;;5.90;;
80146;SDS011;69472;55.812;37.638;2023-05-17T03:28:42;10.35;;;5.50;;
80146;SDS011;69472;55.812;37.638;2023-05-17T03:33:42;13.40;;;5.38;;
80146;SDS011;69472;55.812;37.638;2023-05-17T03:38:43;9.95;;;4.93;;
80146;SDS011;69472;55.812;37.638;2023-05-17T03:43:44;11.20;;;5.32;;
80146;SDS011;69472;55.812;37.638;2023-05-17T03:48:45;16.92;;;8.40;;
80146;SDS011;69472;55.812;37.638;2023-05-17T03:53:45;9.60;;;4.72;;
80146;SDS011;69472;55.812;37.638;2023-05-17T03:58:46;12.65;;;5.10;;
80146;SDS011;69472;55.812;37.638;2023-05-17T04:03:47;13.65;;;5.30;;
80146;SDS011;69472;55.812;37.638;2023-05-17T04:08:48;9.95;;;5.20;;
80146;SDS011;69472;55.812;37.638;2023-05-17T04:13:48;12.63;;;5.85;;
80146;SDS011;69472;55.812;37.638;2023-05-17T04:18:49;14.35;;;5.72;;
80146;SDS011;69472;55.812;37.638;2023-05-17T04:23:51;11.10;;;5.32;;
80146;SDS011;69472;55.812;37.638;2023-05-17T04:28:52;10.90;;;5.60;;
80146;SDS011;69472;55.812;37.638;2023-05-17T04:33:53;7.68;;;4.68;;
80146;SDS011;69472;55.812;37.638;2023-05-17T04:38:53;9.68;;;4.32;;
80146;SDS011;69472;55.812;37.638;2023-05-17T04:43:54;9.45;;;4.82;;
80146;SDS011;69472;55.812;37.638;2023-05-17T04:48:55;9.75;;;4.93;;
80146;SDS011;69472;55.812;37.638;2023-05-17T04:53:57;6.97;;;4.63;;
80146;SDS011;69472;55.812;37.638;2023-05-17T04:59:00;9.18;;;4.20;;
80146;SDS011;69472;55.812;37.638;2023-05-17T05:04:02;6.75;;;4.18;;
80146;SDS011;69472;55.812;37.638;2023-05-17T05:09:06;6.15;;;4.13;;
80146;SDS011;69472;55.812;37.638;2023-05-17T05:14:06;14.43;;;8.10;;
80146;SDS011;69472;55.812;37.638;2023-05-17T05:19:07;11.05;;;4.40;;
80146;SDS011;69472;55.812;37.638;2023-05-17T05:24:09;12.38;;;4.35;;
80146;SDS011;69472;55.812;37.638;2023-05-17T05:29:09;13.85;;;4.18;;
80146;SDS011;69472;55.812;37.638;2023-05-17T05:34:10;6.05;;;3.63;;
80146;SDS011;69472;55.812;37.638;2023-05-17T05:39:11;4.97;;;3.10;;
80146;SDS011;69472;55.812;37.638;2023-05-17T05:44:11;5.57;;;3.42;;
80146;SDS011;69472;55.812;37.638;2023-05-17T05:54:13;3.83;;;3.05;;
80146;SDS011;69472;55.812;37.638;2023-05-17T05:59:13;5.25;;;2.70;;
80146;SDS011;69472;55.812;37.638;2023-05-17T06:04:14;12.23;;;3.28;;
80146;SDS011;69472;55.812;37.638;2023-05-17T06:09:15;6.53;;;2.70;;
80146;SDS011;69472;55.812;37.638;2023-05-17T06:14:16;9.85;;;2.42;;
80146;SDS011;69472;55.812;37.638;2023-05-17T06:19:17;3.92;;;2.03;;
80146;SDS011;69472;55.812;37.638;2023-05-17T06:24:17;3.42;;;2.25;;
80146;SDS011;69472;55.812;37.638;2023-05-17T06:29:18;5.03;;;2.45;;
80146;SDS011;69472;55.812;37.638;2023-05-17T06:34:19;6.78;;;2.53;;
80146;SDS011;69472;55.812;37.638;2023-05-17T06:39:20;5.25;;;2.65;;
80146;SDS011;69472;55.812;37.638;2023-05-17T06:44:20;4.28;;;2.58;;
80146;SDS011;69472;55.812;37.638;2023-05-17T06:49:21;5.32;;;2.50;;
80146;SDS011;69472;55.812;37.638;2023-05-17T06:54:22;5.40;;;2.78;;
80146;SDS011;69472;55.812;37.638;2023-05-17T06:59:22;6.95;;;2.90;;
80146;SDS011;69472;55.812;37.638;2023-05-17T07:04:23;5.20;;;2.33;;
80146;SDS011;69472;55.812;37.638;2023-05-17T07:09:24;7.15;;;3.28;;
80146;SDS011;69472;55.812;37.638;2023-05-17T07:14:25;5.82;;;3.17;;
80146;SDS011;69472;55.812;37.638;2023-05-17T07:19:25;15.30;;;3.75;;
80146;SDS011;69472;55.812;37.638;2023-05-17T07:24:26;4.53;;;3.58;;
80146;SDS011;69472;55.812;37.638;2023-05-17T07:29:27;5.03;;;3.38;;
80146;SDS011;69472;55.812;37.638;2023-05-17T07:34:29;6.93;;;4.25;;
80146;SDS011;69472;55.812;37.638;2023-05-17T07:39:30;5.60;;;5.00;;
80146;SDS011;69472;55.812;37.638;2023-05-17T07:44:31;8.18;;;5.35;;
80146;SDS011;69472;55.812;37.638;2023-05-17T07:49:31;6.95;;;4.32;;
80146;SDS011;69472;55.812;37.638;2023-05-17T07:54:33;6.60;;;4.45;;
80146;SDS011;69472;55.812;37.638;2023-05-17T07:59:34;9.18;;;4.50;;
80146;SDS011;69472;55.812;37.638;2023-05-17T08:04:35;8.13;;;4.40;;
80146;SDS011;69472;55.812;37.638;2023-05-17T08:09:36;4.63;;;3.97;;
80146;SDS011;69472;55.812;37.638;2023-05-17T08:14:38;8.68;;;4.03;;
80146;SDS011;69472;55.812;37.638;2023-05-17T08:19:39;6.45;;;4.82;;
80146;SDS011;69472;55.812;37.638;2023-05-17T08:24:39;4.05;;;3.65;;
80146;SDS011;69472;55.812;37.638;2023-05-17T08:29:40;4.05;;;3.08;;
80146;SDS011;69472;55.812;37.638;2023-05-17T08:34:40;6.75;;;3.00;;
80146;SDS011;69472;55.812;37.638;2023-05-17T08:39:41;4.20;;;2.80;;
80146;SDS011;69472;55.812;37.638;2023-05-17T08:44:42;4.70;;;2.53;;
80146;SDS011;69472;55.812;37.638;2023-05-17T08:49:43;4.97;;;2.53;;
80146;SDS011;69472;55.812;37.638;2023-05-17T08:54:45;5.25;;;2.83;;
80146;SDS011;69472;55.812;37.638;2023-05-17T08:59:46;4.32;;;3.08;;
80146;SDS011;69472;55.812;37.638;2023-05-17T09:04:48;4.47;;;2.70;;
80146;SDS011;69472;55.812;37.638;2023-05-17T09:09:54;3.28;;;2.05;;
80146;SDS011;69472;55.812;37.638;2023-05-17T09:14:58;3.90;;;2.70;;
80146;SDS011;69472;55.812;37.638;2023-05-17T09:20:15;5.97;;;3.10;;
80146;SDS011;69472;55.812;37.638;2023-05-17T09:25:25;2.70;;;2.00;;
80146;SDS011;69472;55.812;37.638;2023-05-17T09:30:28;3.03;;;2.33;;
80146;SDS011;69472;55.812;37.638;2023-05-17T09:35:30;4.80;;;2.42;;
80146;SDS011;69472;55.812;37.638;2023-05-17T09:40:32;7.65;;;2.38;;
80146;SDS011;69472;55.812;37.638;2023-05-17T09:45:33;5.20;;;2.78;;
80146;SDS011;69472;55.812;37.638;2023-05-17T09:50:47;5.38;;;2.42;;
80146;SDS011;69472;55.812;37.638;2023-05-17T09:55:50;4.55;;;2.10;;
80146;SDS011;69472;55.812;37.638;2023-05-17T10:00:53;4.95;;;2.08;;
80146;SDS011;69472;55.812;37.638;2023-05-17T10:05:58;3.65;;;2.30;;
80146;SDS011;69472;55.812;37.638;2023-05-17T10:11:06;4.70;;;2.55;;
80146;SDS011;69472;55.812;37.638;2023-05-17T10:16:08;4.25;;;2.28;;
80146;SDS011;69472;55.812;37.638;2023-05-17T10:21:11;6.32;;;2.67;;
80146;SDS011;69472;55.812;37.638;2023-05-17T10:26:13;5.18;;;2.53;;
80146;SDS011;69472;55.812;37.638;2023-05-17T10:31:15;22.83;;;3.35;;
80146;SDS011;69472;55.812;37.638;2023-05-17T10:36:16;3.70;;;2.33;;
80146;SDS011;69472;55.812;37.638;2023-05-17T10:41:19;4.00;;;2.80;;
80146;SDS011;69472;55.812;37.638;2023-05-17T10:46:23;7.85;;;3.65;;
80146;SDS011;69472;55.812;37.638;2023-05-17T10:56:32;4.65;;;3.03;;
80146;SDS011;69472;55.812;37.638;2023-05-17T11:06:52;6.55;;;1.88;;
80146;SDS011;69472;55.812;37.638;2023-05-17T11:17:11;5.25;;;2.88;;
80146;SDS011;69472;55.812;37.638;2023-05-17T11:22:14;6.82;;;2.42;;
80146;SDS011;69472;55.812;37.638;2023-05-17T11:32:17;10.88;;;3.30;;
80146;SDS011;69472;55.812;37.638;2023-05-17T11:37:25;9.80;;;3.13;;
80146;SDS011;69472;55.812;37.638;2023-05-17T11:42:27;4.72;;;2.60;;
80146;SDS011;69472;55.812;37.638;2023-05-17T11:47:28;4.90;;;2.42;;
80146;SDS011;69472;55.812;37.638;2023-05-17T11:52:29;4.88;;;2.70;;
80146;SDS011;69472;55.812;37.638;2023-05-17T11:57:31;4.60;;;2.58;;
80146;SDS011;69472;55.812;37.638;2023-05-17T12:02:32;3.75;;;2.22;;
80146;SDS011;69472;55.812;37.638;2023-05-17T12:07:33;8.30;;;2.72;;
80146;SDS011;69472;55.812;37.638;2023-05-17T12:12:34;5.65;;;2.78;;
80146;SDS011;69472;55.812;37.638;2023-05-17T12:17:37;4.60;;;2.25;;
80146;SDS011;69472;55.812;37.638;2023-05-17T12:22:52;8.18;;;2.72;;
80146;SDS011;69472;55.812;37.638;2023-05-17T12:33:14;6.30;;;2.80;;
80146;SDS011;69472;55.812;37.638;2023-05-17T12:38:16;15.13;;;4.03;;
80146;SDS011;69472;55.812;37.638;2023-05-17T12:43:18;5.95;;;2.63;;
80146;SDS011;69472;55.812;37.638;2023-05-17T12:48:22;81.70;;;12.90;;
80146;SDS011;69472;55.812;37.638;2023-05-17T12:53:33;6.00;;;2.85;;
80146;SDS011;69472;55.812;37.638;2023-05-17T12:58:35;93.90;;;14.88;;
80146;SDS011;69472;55.812;37.638;2023-05-17T13:03:36;32.72;;;8.15;;
80146;SDS011;69472;55.812;37.638;2023-05-17T13:08:37;16.33;;;4.47;;
80146;SDS011;69472;55.812;37.638;2023-05-17T13:13:37;7.70;;;2.60;;
80146;SDS011;69472;55.812;37.638;2023-05-17T13:18:48;7.25;;;2.60;;
80146;SDS011;69472;55.812;37.638;2023-05-17T13:23:50;4.90;;;2.13;;
80146;SDS011;69472;55.812;37.638;2023-05-17T13:28:51;5.95;;;2.80;;
80146;SDS011;69472;55.812;37.638;2023-05-17T13:33:52;10.20;;;3.15;;
80146;SDS011;69472;55.812;37.638;2023-05-17T13:38:52;5.03;;;2.10;;
80146;SDS011;69472;55.812;37.638;2023-05-17T13:43:53;3.95;;;2.50;;
80146;SDS011;69472;55.812;37.638;2023-05-17T13:48:54;12.55;;;3.60;;
80146;SDS011;69472;55.812;37.638;2023-05-17T13:53:54;9.95;;;3.78;;
80146;SDS011;69472;55.812;37.638;2023-05-17T13:58:55;5.38;;;2.35;;
80146;SDS011;69472;55.812;37.638;2023-05-17T14:03:56;8.40;;;2.55;;
80146;SDS011;69472;55.812;37.638;2023-05-17T14:08:57;9.85;;;3.30;;
80146;SDS011;69472;55.812;37.638;2023-05-17T14:13:59;12.63;;;3.22;;
80146;SDS011;69472;55.812;37.638;2023-05-17T14:19:00;6.22;;;2.13;;
80146;SDS011;69472;55.812;37.638;2023-05-17T14:24:01;3.20;;;2.00;;
80146;SDS011;69472;55.812;37.638;2023-05-17T14:29:02;6.38;;;2.50;;
80146;SDS011;69472;55.812;37.638;2023-05-17T14:34:04;3.42;;;1.98;;
80146;SDS011;69472;55.812;37.638;2023-05-17T14:39:05;3.33;;;1.70;;
80146;SDS011;69472;55.812;37.638;2023-05-17T14:44:06;3.63;;;1.63;;
80146;SDS011;69472;55.812;37.638;2023-05-17T14:49:07;6.70;;;2.10;;
80146;SDS011;69472;55.812;37.638;2023-05-17T14:54:08;4.80;;;1.67;;
80146;SDS011;69472;55.812;37.638;2023-05-17T14:59:09;9.20;;;6.20;;
80146;SDS011;69472;55.812;37.638;2023-05-17T15:04:09;4.28;;;2.25;;
80146;SDS011;69472;55.812;37.638;2023-05-17T15:09:10;4.97;;;2.22;;
80146;SDS011;69472;55.812;37.638;2023-05-17T15:14:11;4.57;;;2.15;;
80146;SDS011;69472;55.812;37.638;2023-05-17T15:19:12;8.50;;;2.10;;
80146;SDS011;69472;55.812;37.638;2023-05-17T15:24:14;4.20;;;2.20;;
80146;SDS011;69472;55.812;37.638;2023-05-17T15:29:15;6.60;;;2.35;;
80146;SDS011;69472;55.812;37.638;2023-05-17T15:34:16;6.80;;;2.38;;
80146;SDS011;69472;55.812;37.638;2023-05-17T15:39:17;4.63;;;1.90;;
80146;SDS011;69472;55.812;37.638;2023-05-17T15:44:17;6.78;;;2.85;;
80146;SDS011;69472;55.812;37.638;2023-05-17T15:49:18;3.88;;;2.67;;
80146;SDS011;69472;55.812;37.638;2023-05-17T15:54:19;10.32;;;2.90;;
80146;SDS011;69472;55.812;37.638;2023-05-17T15:59:20;4.55;;;2.78;;
80146;SDS011;69472;55.812;37.638;2023-05-17T16:04:20;5.07;;;2.78;;
80146;SDS011;69472;55.812;37.638;2023-05-17T16:09:21;4.20;;;3.28;;
80146;SDS011;69472;55.812;37.638;2023-05-17T16:14:22;8.02;;;3.72;;
80146;SDS011;69472;55.812;37.638;2023-05-17T16:19:23;15.38;;;6.97;;
80146;SDS011;69472;55.812;37.638;2023-05-17T16:24:25;10.90;;;3.95;;
80146;SDS011;69472;55.812;37.638;2023-05-17T16:29:27;7.35;;;2.78;;
80146;SDS011;69472;55.812;37.638;2023-05-17T16:34:27;9.27;;;3.70;;
80146;SDS011;69472;55.812;37.638;2023-05-17T16:39:28;7.85;;;2.95;;
80146;SDS011;69472;55.812;37.638;2023-05-17T16:44:29;25.75;;;4.85;;
80146;SDS011;69472;55.812;37.638;2023-05-17T16:49:30;7.25;;;3.40;;
80146;SDS011;69472;55.812;37.638;2023-05-17T16:54:31;8.98;;;3.63;;
80146;SDS011;69472;55.812;37.638;2023-05-17T16:59:33;11.85;;;4.75;;
80146;SDS011;69472;55.812;37.638;2023-05-17T17:04:34;11.00;;;3.60;;
80146;SDS011;69472;55.812;37.638;2023-05-17T17:09:35;7.90;;;3.45;;
80146;SDS011;69472;55.812;37.638;2023-05-17T17:14:35;8.88;;;4.07;;
80146;SDS011;69472;55.812;37.638;2023-05-17T17:19:37;8.20;;;2.97;;
80146;SDS011;69472;55.812;37.638;2023-05-17T17:24:37;7.20;;;4.70;;
80146;SDS011;69472;55.812;37.638;2023-05-17T17:29:38;8.50;;;4.00;;
80146;SDS011;69472;55.812;37.638;2023-05-17T17:34:39;9.40;;;3.35;;
80146;SDS011;69472;55.812;37.638;2023-05-17T17:39:40;8.75;;;3.50;;
80146;SDS011;69472;55.812;37.638;2023-05-17T17:44:41;10.32;;;3.65;;
80146;SDS011;69472;55.812;37.638;2023-05-17T17:49:41;9.95;;;3.50;;
80146;SDS011;69472;55.812;37.638;2023-05-17T17:54:42;6.32;;;3.58;;
80146;SDS011;69472;55.812;37.638;2023-05-17T17:59:43;5.07;;;3.17;;
80146;SDS011;69472;55.812;37.638;2023-05-17T18:04:44;6.68;;;3.78;;
80146;SDS011;69472;55.812;37.638;2023-05-17T18:09:45;6.25;;;2.97;;
80146;SDS011;69472;55.812;37.638;2023-05-17T18:14:45;6.80;;;3.30;;
80146;SDS011;69472;55.812;37.638;2023-05-17T18:19:46;7.40;;;3.22;;
80146;SDS011;69472;55.812;37.638;2023-05-17T18:24:47;8.38;;;3.63;;
80146;SDS011;69472;55.812;37.638;2023-05-17T18:29:48;7.32;;;3.45;;
80146;SDS011;69472;55.812;37.638;2023-05-17T18:34:49;10.13;;;3.65;;
80146;SDS011;69472;55.812;37.638;2023-05-17T18:39:49;5.72;;;3.45;;
80146;SDS011;69472;55.812;37.638;2023-05-17T18:44:50;9.38;;;4.38;;
80146;SDS011;69472;55.812;37.638;2023-05-17T18:49:51;8.95;;;4.85;;
80146;SDS011;69472;55.812;37.638;2023-05-17T18:54:52;11.13;;;4.60;;
80146;SDS011;69472;55.812;37.638;2023-05-17T18:59:53;12.32;;;4.75;;
80146;SDS011;69472;55.812;37.638;2023-05-17T19:04:54;13.25;;;5.65;;
80146;SDS011;69472;55.812;37.638;2023-05-17T19:09:54;13.38;;;5.93;;
80146;SDS011;69472;55.812;37.638;2023-05-17T19:14:55;12.10;;;5.88;;
80146;SDS011;69472;55.812;37.638;2023-05-17T19:19:56;11.88;;;5.43;;
80146;SDS011;69472;55.812;37.638;2023-05-17T19:24:56;12.30;;;6.20;;
80146;SDS011;69472;55.812;37.638;2023-05-17T19:29:57;19.85;;;6.57;;
80146;SDS011;69472;55.812;37.638;2023-05-17T19:34:58;11.68;;;6.25;;
80146;SDS011;69472;55.812;37.638;2023-05-17T19:45:01;16.13;;;5.75;;
80146;SDS011;69472;55.812;37.638;2023-05-17T19:50:02;15.32;;;6.40;;
80146;SDS011;69472;55.812;37.638;2023-05-17T19:55:03;14.10;;;6.28;;
80146;SDS011;69472;55.812;37.638;2023-05-17T20:00:04;16.15;;;6.88;;
80146;SDS011;69472;55.812;37.638;2023-05-17T20:05:05;13.95;;;6.80;;
80146;SDS011;69472;55.812;37.638;2023-05-17T20:10:06;15.50;;;6.63;;
80146;SDS011;69472;55.812;37.638;2023-05-17T20:15:07;19.77;;;7.68;;
80146;SDS011;69472;55.812;37.638;2023-05-17T20:20:08;17.05;;;7.88;;
80146;SDS011;69472;55.812;37.638;2023-05-17T20:25:09;20.38;;;8.25;;
80146;SDS011;69472;55.812;37.638;2023-05-17T20:30:12;12.57;;;7.50;;
80146;SDS011;69472;55.812;37.638;2023-05-17T20:35:14;13.63;;;7.05;;
80146;SDS011;69472;55.812;37.638;2023-05-17T20:40:14;17.70;;;7.82;;
80146;SDS011;69472;55.812;37.638;2023-05-17T20:45:15;16.20;;;7.50;;
80146;SDS011;69472;55.812;37.638;2023-05-17T20:50:16;21.25;;;7.97;;
80146;SDS011;69472;55.812;37.638;2023-05-17T20:55:17;16.95;;;8.15;;
80146;SDS011;69472;55.812;37.638;2023-05-17T21:00:18;15.68;;;7.88;;
80146;SDS011;69472;55.812;37.638;2023-05-17T21:05:20;18.00;;;8.70;;
80146;SDS011;69472;55.812;37.638;2023-05-17T21:10:21;18.40;;;7.85;;
80146;SDS011;69472;55.812;37.638;2023-05-17T21:15:22;18.65;;;8.30;;
80146;SDS011;69472;55.812;37.638;2023-05-17T21:20:24;20.63;;;8.90;;
80146;SDS011;69472;55.812;37.638;2023-05-17T21:25:25;17.58;;;8.60;;
80146;SDS011;69472;55.812;37.638;2023-05-17T21:30:26;18.58;;;9.45;;
80146;SDS011;69472;55.812;37.638;2023-05-17T21:35:27;17.98;;;8.80;;
80146;SDS011;69472;55.812;37.638;2023-05-17T21:40:27;17.55;;;8.50;;
80146;SDS011;69472;55.812;37.638;2023-05-17T21:45:28;16.98;;;7.63;;
80146;SDS011;69472;55.812;37.638;2023-05-17T21:50:29;18.55;;;8.35;;
80146;SDS011;69472;55.812;37.638;2023-05-17T21:55:30;16.88;;;8.25;;
80146;SDS011;69472;55.812;37.638;2023-05-17T22:00:30;23.55;;;8.70;;
80146;SDS011;69472;55.812;37.638;2023-05-17T22:05:31;17.88;;;7.35;;
80146;SDS011;69472;55.812;37.638;2023-05-17T22:10:32;23.58;;;8.73;;
80146;SDS011;69472;55.812;37.638;2023-05-17T22:15:33;22.30;;;9.68;;
80146;SDS011;69472;55.812;37.638;2023-05-17T22:20:34;16.88;;;7.97;;
80146;SDS011;69472;55.812;37.638;2023-05-17T22:25:35;18.48;;;8.70;;
80146;SDS011;69472;55.812;37.638;2023-05-17T22:30:36;17.55;;;9.00;;
80146;SDS011;69472;55.812;37.638;2023-05-17T22:35:38;16.98;;;8.40;;
80146;SDS011;69472;55.812;37.638;2023-05-17T22:40:40;23.48;;;8.57;;
80146;SDS011;69472;55.812;37.638;2023-05-17T22:45:41;21.05;;;8.95;;
80146;SDS011;69472;55.812;37.638;2023-05-17T22:50:41;15.68;;;8.57;;
80146;SDS011;69472;55.812;37.638;2023-05-17T22:55:52;20.73;;;8.98;;
80146;SDS011;69472;55.812;37.638;2023-05-17T23:00:54;20.92;;;8.65;;
80146;SDS011;69472;55.812;37.638;2023-05-17T23:05:55;14.93;;;9.43;;
80146;SDS011;69472;55.812;37.638;2023-05-17T23:11:01;17.90;;;8.60;;
80146;SDS011;69472;55.812;37.638;2023-05-17T23:16:04;18.35;;;9.13;;
80146;SDS011;69472;55.812;37.638;2023-05-17T23:26:07;20.35;;;8.75;;
80146;SDS011;69472;55.812;37.638;2023-05-17T23:31:08;18.52;;;8.77;;
80146;SDS011;69472;55.812;37.638;2023-05-17T23:36:09;15.07;;;8.02;;
80146;SDS011;69472;55.812;37.638;2023-05-17T23:41:10;16.95;;;8.77;;
80146;SDS011;69472;55.812;37.638;2023-05-17T23:46:16;15.52;;;8.45;;
80146;SDS011;69472;55.812;37.638;2023-05-17T23:51:18;17.50;;;8.57;;
80146;SDS011;69472;55.812;37.638;2023-05-17T23:56:19;17.25;;;8.20;;
